Portsmouth, Rhode Island
Current Conditions -  °F | °C
As of 11:53 AM on Wednesday 22 Oct 2014 (Local Time) from KUUU Reporting Station
Haze Haze  
Wind Chill: 57°   Ceiling: 900
Heat Index: 57°   Visibility: 6mi
Dew Point: 53°   Wind: 16mph
Humidity: 87%   Direction: 20°NNE
Pressure: 29.9"   Gusts: 29mph
Location:  41.6°N, 71.25°W
Report Text: KUUU 221553Z AUTO 02014G25KT 6SM BR OVC009 14/12 A2990 RMK AO2 PK WND 02026/1530 CIG 007V011 SLP126 T01390117
Loading
Personal Weather Stations






























Interactive Weather Map
Tropical Storm Tracking
New forecast layout! Learn more

10-Day Weather Forecast

Advertisements
Track Severe Weather on mobile